createdAt,value
2022-10-28T00:00:54.591Z,68.36
2022-10-28T00:01:54.550Z,68.36
2022-10-28T00:03:00.907Z,68.36
2022-10-28T00:03:54.499Z,68.34
2022-10-28T00:04:54.491Z,68.31
2022-10-28T00:05:54.650Z,68.30
2022-10-28T00:06:54.511Z,68.31
2022-10-28T00:08:01.030Z,68.27
2022-10-28T00:08:55.443Z,68.26
2022-10-28T00:09:54.466Z,68.23
2022-10-28T00:10:54.483Z,68.20
2022-10-28T00:11:54.426Z,68.20
2022-10-28T00:13:00.797Z,68.19
2022-10-28T00:13:54.413Z,68.18
2022-10-28T00:14:54.370Z,68.17
2022-10-28T00:15:54.377Z,68.16
2022-10-28T00:16:54.692Z,68.16
2022-10-28T00:18:00.740Z,68.16
2022-10-28T00:18:54.499Z,68.13
2022-10-28T00:19:54.370Z,68.14
2022-10-28T00:20:54.303Z,68.11
2022-10-28T00:21:54.312Z,68.10
2022-10-28T00:22:54.269Z,68.09
2022-10-28T00:24:00.648Z,68.07
2022-10-28T00:24:54.218Z,68.07
2022-10-28T00:25:54.232Z,68.06
2022-10-28T00:26:54.284Z,68.05
2022-10-28T00:27:54.511Z,68.04
2022-10-28T00:28:54.214Z,68.03
2022-10-28T00:30:00.613Z,68.01
2022-10-28T00:30:54.532Z,68.00
2022-10-28T00:31:54.512Z,68.02
2022-10-28T00:32:58.973Z,68.03
2022-10-28T00:33:54.562Z,68.05
2022-10-28T00:35:00.793Z,68.09
2022-10-28T00:35:54.107Z,68.12
2022-10-28T00:36:54.094Z,68.12
2022-10-28T00:37:54.168Z,68.14
2022-10-28T00:38:54.220Z,68.12
2022-10-28T00:39:54.104Z,68.10
2022-10-28T00:41:00.361Z,68.09
2022-10-28T00:41:54.109Z,68.07
2022-10-28T00:42:54.393Z,68.06
2022-10-28T00:43:54.166Z,68.04
2022-10-28T00:44:54.021Z,68.03
2022-10-28T00:45:54.008Z,67.99
2022-10-28T00:47:00.624Z,68.01
2022-10-28T00:47:54.274Z,68.00
2022-10-28T00:48:54.031Z,68.01
2022-10-28T00:49:53.974Z,67.99
2022-10-28T00:50:53.992Z,67.99
2022-10-28T00:51:53.974Z,67.99
2022-10-28T00:53:00.339Z,67.96
2022-10-28T00:53:53.883Z,67.95
2022-10-28T00:54:53.866Z,67.91
2022-10-28T00:55:53.897Z,67.89
2022-10-28T00:56:53.926Z,67.88
2022-10-28T00:57:53.929Z,67.86
2022-10-28T00:59:00.262Z,67.86
2022-10-28T00:59:53.975Z,67.86
2022-10-28T01:00:56.635Z,67.85
2022-10-28T01:01:53.954Z,67.83
2022-10-28T01:02:54.090Z,67.81
2022-10-28T01:03:53.945Z,67.78
2022-10-28T01:05:01.061Z,67.77
2022-10-28T01:05:54.155Z,67.76
2022-10-28T01:06:53.911Z,67.74
2022-10-28T01:07:54.130Z,67.72
2022-10-28T01:08:57.520Z,67.71
2022-10-28T01:09:55.257Z,67.71
2022-10-28T01:10:59.975Z,67.71
2022-10-28T01:11:53.692Z,67.69
2022-10-28T01:12:54.064Z,67.69
2022-10-28T01:13:53.837Z,67.69
2022-10-28T01:14:53.751Z,67.67
2022-10-28T01:15:59.901Z,67.66
2022-10-28T01:16:53.622Z,67.63
2022-10-28T01:17:53.662Z,67.64
2022-10-28T01:18:54.058Z,67.63
2022-10-28T01:19:53.656Z,67.61
2022-10-28T01:20:55.306Z,67.61
2022-10-28T01:21:59.921Z,67.61
2022-10-28T01:22:53.771Z,67.60
2022-10-28T01:23:53.612Z,67.57
2022-10-28T01:24:53.537Z,67.54
2022-10-28T01:25:53.602Z,67.55
2022-10-28T01:26:53.520Z,67.59
2022-10-28T01:27:59.869Z,67.60
2022-10-28T01:28:53.498Z,67.60
2022-10-28T01:29:53.479Z,67.59
2022-10-28T01:30:53.419Z,67.59
2022-10-28T01:31:53.453Z,67.59
2022-10-28T01:32:59.689Z,67.59
2022-10-28T01:33:53.385Z,67.58
2022-10-28T01:34:53.391Z,67.58
2022-10-28T01:35:53.408Z,67.58
2022-10-28T01:36:53.407Z,67.57
2022-10-28T01:37:53.658Z,67.54
2022-10-28T01:38:59.676Z,67.51
2022-10-28T01:39:53.380Z,67.53
2022-10-28T01:40:53.388Z,67.58
2022-10-28T01:41:53.280Z,67.58
2022-10-28T01:42:53.301Z,67.61
2022-10-28T01:44:00.585Z,67.63
2022-10-28T01:44:53.303Z,67.68
2022-10-28T01:45:53.391Z,67.71
2022-10-28T01:46:54.238Z,67.75
2022-10-28T01:47:53.510Z,67.79
2022-10-28T01:49:00.499Z,67.82
2022-10-28T01:49:53.483Z,67.84
2022-10-28T01:50:53.357Z,67.85
2022-10-28T01:51:53.301Z,67.87
2022-10-28T01:52:53.549Z,67.88
2022-10-28T01:53:54.201Z,67.87
2022-10-28T01:55:00.064Z,67.88
2022-10-28T01:55:53.090Z,67.90
2022-10-28T01:56:53.313Z,67.90
2022-10-28T01:57:53.034Z,67.94
2022-10-28T01:58:53.240Z,67.96
2022-10-28T01:59:53.113Z,67.98
2022-10-28T02:00:59.561Z,67.98
2022-10-28T02:01:53.175Z,67.99
2022-10-28T02:02:53.265Z,68.00
2022-10-28T02:03:54.842Z,68.01
2022-10-28T02:04:53.089Z,68.02
2022-10-28T02:05:53.041Z,68.05
2022-10-28T02:06:59.258Z,68.08
2022-10-28T02:07:53.173Z,68.09
2022-10-28T02:08:52.980Z,68.11
2022-10-28T02:09:53.941Z,68.12
2022-10-28T02:10:52.995Z,68.13
2022-10-28T02:11:59.237Z,68.13
2022-10-28T02:12:53.303Z,68.12
2022-10-28T02:13:52.926Z,68.12
2022-10-28T02:14:52.950Z,68.14
2022-10-28T02:15:52.838Z,68.18
2022-10-28T02:16:52.923Z,68.19
2022-10-28T02:17:59.214Z,68.20
2022-10-28T02:18:52.875Z,68.20
2022-10-28T02:19:53.862Z,68.20
2022-10-28T02:20:52.985Z,68.20
2022-10-28T02:21:52.768Z,68.18
2022-10-28T02:22:59.030Z,68.19
2022-10-28T02:23:52.896Z,68.19
2022-10-28T02:24:52.720Z,68.17
2022-10-28T02:25:52.783Z,68.17
2022-10-28T02:26:52.720Z,68.19
2022-10-28T02:27:52.995Z,68.19
2022-10-28T02:29:03.259Z,68.21
2022-10-28T02:29:53.515Z,68.20
2022-10-28T02:30:52.700Z,68.22
2022-10-28T02:31:53.382Z,68.21
2022-10-28T02:32:52.915Z,68.21
2022-10-28T02:33:52.886Z,68.21
2022-10-28T02:34:59.764Z,68.20
2022-10-28T02:35:52.802Z,68.22
2022-10-28T02:36:59.520Z,68.24
2022-10-28T02:37:52.562Z,68.25
2022-10-28T02:38:52.570Z,68.27
2022-10-28T02:39:59.772Z,68.29
2022-10-28T02:41:52.579Z,68.34
2022-10-28T02:42:53.046Z,68.35
2022-10-28T02:43:52.683Z,68.37
2022-10-28T02:44:52.717Z,68.38
2022-10-28T02:45:58.723Z,68.38
2022-10-28T02:46:52.459Z,68.40
2022-10-28T02:47:52.521Z,68.41
2022-10-28T02:48:53.508Z,68.41
2022-10-28T02:49:52.479Z,68.41
2022-10-28T02:50:53.408Z,68.42
2022-10-28T02:51:58.697Z,68.43
2022-10-28T02:52:52.796Z,68.45
2022-10-28T02:53:52.550Z,68.48
2022-10-28T02:54:52.358Z,68.48
2022-10-28T02:55:52.502Z,68.48
2022-10-28T02:56:53.411Z,68.49
2022-10-28T02:57:58.668Z,68.48
2022-10-28T02:58:53.315Z,68.47
2022-10-28T02:59:52.654Z,68.43
2022-10-28T03:00:52.469Z,68.42
2022-10-28T03:01:52.458Z,68.44
2022-10-28T03:02:58.916Z,68.46
2022-10-28T03:03:52.351Z,68.45
2022-10-28T03:04:52.557Z,68.47
2022-10-28T03:05:52.170Z,68.49
2022-10-28T03:06:52.217Z,68.47
2022-10-28T03:07:52.607Z,68.49
2022-10-28T03:08:59.561Z,68.48
2022-10-28T03:09:52.281Z,68.50
2022-10-28T03:10:52.324Z,68.51
2022-10-28T03:11:53.203Z,68.51
2022-10-28T03:12:52.238Z,68.52
2022-10-28T03:13:52.443Z,68.51
2022-10-28T03:14:58.439Z,68.52
2022-10-28T03:15:52.141Z,68.53
2022-10-28T03:16:52.186Z,68.55
2022-10-28T03:17:52.704Z,68.54
2022-10-28T03:18:52.134Z,68.55
2022-10-28T03:19:52.226Z,68.55
2022-10-28T03:20:59.131Z,68.54
2022-10-28T03:21:52.090Z,68.54
2022-10-28T03:22:52.435Z,68.55
2022-10-28T03:23:52.014Z,68.57
2022-10-28T03:24:52.019Z,68.58
2022-10-28T03:25:59.363Z,68.59
2022-10-28T03:26:52.085Z,68.60
2022-10-28T03:27:51.951Z,68.58
2022-10-28T03:28:51.982Z,68.58
2022-10-28T03:29:51.949Z,68.59
2022-10-28T03:30:51.939Z,68.59
2022-10-28T03:31:58.221Z,68.60
2022-10-28T03:32:52.210Z,68.60
2022-10-28T03:33:51.829Z,68.60
2022-10-28T03:34:51.816Z,68.61
2022-10-28T03:35:51.945Z,68.62
2022-10-28T03:36:51.832Z,68.61
2022-10-28T03:37:59.238Z,68.62
2022-10-28T03:38:52.013Z,68.62
2022-10-28T03:39:51.886Z,68.63
2022-10-28T03:40:59.300Z,68.62
2022-10-28T03:41:52.157Z,68.61
2022-10-28T03:42:58.221Z,68.60
2022-10-28T03:43:52.756Z,68.58
2022-10-28T03:44:51.928Z,68.55
2022-10-28T03:45:51.934Z,68.54
2022-10-28T03:46:52.842Z,68.53
2022-10-28T03:47:52.058Z,68.52
2022-10-28T03:48:57.987Z,68.52
2022-10-28T03:49:51.695Z,68.50
2022-10-28T03:50:52.610Z,68.49
2022-10-28T03:51:51.644Z,68.49
2022-10-28T03:52:52.669Z,68.50
2022-10-28T03:53:51.661Z,68.50
2022-10-28T03:54:58.938Z,68.51
2022-10-28T03:55:51.675Z,68.53
2022-10-28T03:56:51.645Z,68.54
2022-10-28T03:57:51.844Z,68.58
2022-10-28T03:59:51.520Z,68.60
2022-10-28T04:00:58.903Z,68.61
2022-10-28T04:01:51.603Z,68.62
2022-10-28T04:02:51.797Z,68.62
2022-10-28T04:03:51.531Z,68.62
2022-10-28T04:04:51.533Z,68.63
2022-10-28T04:05:51.456Z,68.63
2022-10-28T04:06:57.695Z,68.62
2022-10-28T04:07:51.412Z,68.62
2022-10-28T04:08:51.474Z,68.63
2022-10-28T04:09:51.399Z,68.64
2022-10-28T04:10:52.409Z,68.65
2022-10-28T04:11:57.704Z,68.63
2022-10-28T04:12:51.462Z,68.63
2022-10-28T04:13:51.379Z,68.60
2022-10-28T04:14:51.409Z,68.59
2022-10-28T04:15:51.299Z,68.57
2022-10-28T04:16:51.370Z,68.56
2022-10-28T04:17:57.603Z,68.55
2022-10-28T04:18:51.257Z,68.54
2022-10-28T04:19:51.252Z,68.56
2022-10-28T04:20:51.254Z,68.55
2022-10-28T04:21:51.268Z,68.54
2022-10-28T04:22:57.587Z,68.53
2022-10-28T04:23:51.197Z,68.52
2022-10-28T04:24:51.249Z,68.53
2022-10-28T04:25:51.202Z,68.52
2022-10-28T04:26:51.180Z,68.53
2022-10-28T04:27:57.433Z,68.52
2022-10-28T04:28:51.132Z,68.53
2022-10-28T04:29:51.112Z,68.52
2022-10-28T04:30:51.143Z,68.54
2022-10-28T04:31:52.329Z,68.56
2022-10-28T04:32:58.525Z,68.59
2022-10-28T04:33:51.123Z,68.59
2022-10-28T04:34:51.106Z,68.60
2022-10-28T04:35:51.120Z,68.62
2022-10-28T04:36:52.183Z,68.63
2022-10-28T04:37:57.872Z,68.63
2022-10-28T04:38:51.097Z,68.63
2022-10-28T04:39:51.088Z,68.64
2022-10-28T04:40:57.413Z,68.65
2022-10-28T04:41:52.120Z,68.65
2022-10-28T04:42:57.380Z,68.65
2022-10-28T04:43:51.034Z,68.65
2022-10-28T04:44:51.011Z,68.66
2022-10-28T04:45:50.997Z,68.66
2022-10-28T04:46:51.109Z,68.65
2022-10-28T04:47:58.390Z,68.65
2022-10-28T04:48:50.976Z,68.64
2022-10-28T04:49:51.919Z,68.66
2022-10-28T04:50:51.270Z,68.67
2022-10-28T04:51:50.906Z,68.65
2022-10-28T04:52:51.554Z,68.66
2022-10-28T04:53:57.620Z,68.66
2022-10-28T04:54:51.422Z,68.67
2022-10-28T04:55:51.316Z,68.67
2022-10-28T04:56:52.084Z,68.68
2022-10-28T04:57:50.918Z,68.68
2022-10-28T04:58:50.877Z,68.67
2022-10-28T04:59:57.079Z,68.66
2022-10-28T05:00:57.107Z,68.65
2022-10-28T05:01:50.945Z,68.63
2022-10-28T05:02:50.806Z,68.65
2022-10-28T05:03:50.757Z,68.63
2022-10-28T05:04:58.535Z,68.65
2022-10-28T05:05:57.101Z,68.66
2022-10-28T05:06:51.879Z,68.66
2022-10-28T05:07:50.895Z,68.65
2022-10-28T05:08:50.991Z,68.64
2022-10-28T05:09:51.835Z,68.63
2022-10-28T05:10:59.205Z,68.66
2022-10-28T05:11:51.707Z,68.66
2022-10-28T05:12:51.674Z,68.67
2022-10-28T05:13:51.878Z,68.67
2022-10-28T05:14:53.170Z,68.66
2022-10-28T05:15:56.964Z,68.64
2022-10-28T05:16:51.012Z,68.64
2022-10-28T05:17:50.880Z,68.65
2022-10-28T05:18:50.557Z,68.67
2022-10-28T05:19:50.540Z,68.65
2022-10-28T05:20:57.759Z,68.65
2022-10-28T05:21:50.735Z,68.67
2022-10-28T05:22:50.817Z,68.68
2022-10-28T05:23:54.369Z,68.70
2022-10-28T05:24:50.777Z,68.70
2022-10-28T05:25:51.643Z,68.68
2022-10-28T05:26:57.959Z,68.67
2022-10-28T05:27:50.754Z,68.64
2022-10-28T05:28:50.443Z,68.61
2022-10-28T05:29:50.365Z,68.61
2022-10-28T05:30:50.512Z,68.63
2022-10-28T05:31:51.494Z,68.65
2022-10-28T05:32:56.955Z,68.64
2022-10-28T05:33:50.299Z,68.64
2022-10-28T05:34:50.270Z,68.63
2022-10-28T05:35:50.376Z,68.62
2022-10-28T05:36:50.281Z,68.61
2022-10-28T05:37:50.331Z,68.59
2022-10-28T05:38:56.626Z,68.59
2022-10-28T05:39:50.225Z,68.60
2022-10-28T05:40:50.207Z,68.59
2022-10-28T05:41:50.254Z,68.57
2022-10-28T05:42:50.325Z,68.58
2022-10-28T05:43:56.767Z,68.57
2022-10-28T05:44:50.376Z,68.55
2022-10-28T05:45:50.231Z,68.54
2022-10-28T05:46:50.214Z,68.52
2022-10-28T05:47:50.123Z,68.51
2022-10-28T05:48:56.499Z,68.49
2022-10-28T05:49:50.118Z,68.45
2022-10-28T05:50:50.070Z,68.43
2022-10-28T05:51:50.125Z,68.41
2022-10-28T05:53:11.147Z,68.37
2022-10-28T05:53:50.405Z,68.35
2022-10-28T05:54:56.624Z,68.31
2022-10-28T05:55:50.099Z,68.27
2022-10-28T05:56:50.105Z,68.22
2022-10-28T05:57:49.999Z,68.20
2022-10-28T05:59:56.356Z,68.16
2022-10-28T06:00:49.961Z,68.14
2022-10-28T06:01:50.013Z,68.11
2022-10-28T06:02:49.939Z,68.07
2022-10-28T06:03:49.984Z,68.06
2022-10-28T06:04:49.885Z,68.01
2022-10-28T06:05:56.203Z,67.99
2022-10-28T06:06:49.940Z,67.95
2022-10-28T06:07:49.862Z,67.94
2022-10-28T06:08:49.862Z,67.91
2022-10-28T06:09:49.838Z,67.87
2022-10-28T06:10:58.010Z,67.86
2022-10-28T06:11:48.371Z,67.84
2022-10-28T06:12:48.322Z,67.79
2022-10-28T06:13:48.403Z,67.75
2022-10-28T06:14:48.274Z,67.72
2022-10-28T06:15:54.859Z,67.67
2022-10-28T06:16:48.297Z,67.64
2022-10-28T06:17:48.217Z,67.58
2022-10-28T06:18:48.208Z,67.55
2022-10-28T06:19:48.852Z,67.50
2022-10-28T06:20:48.181Z,67.45
2022-10-28T06:21:54.709Z,67.40
2022-10-28T06:22:48.137Z,67.37
2022-10-28T06:23:48.163Z,67.34
2022-10-28T06:24:50.192Z,67.30
2022-10-28T06:25:48.277Z,67.26
2022-10-28T06:26:48.346Z,67.23
2022-10-28T06:27:54.824Z,67.20
2022-10-28T06:28:48.204Z,67.17
2022-10-28T06:29:49.077Z,67.14
2022-10-28T06:30:49.213Z,67.10
2022-10-28T06:31:48.256Z,67.08
2022-10-28T06:32:48.159Z,67.08
2022-10-28T06:33:54.342Z,67.05
2022-10-28T06:34:48.144Z,67.03
2022-10-28T06:35:48.041Z,67.02
2022-10-28T06:36:49.056Z,67.01
2022-10-28T06:37:48.024Z,67.00
2022-10-28T06:38:54.547Z,67.00
2022-10-28T06:39:48.170Z,66.98
2022-10-28T06:40:50.258Z,66.98
2022-10-28T06:42:09.133Z,66.96
2022-10-28T06:42:48.002Z,66.96
2022-10-28T06:43:54.225Z,66.95
2022-10-28T06:44:48.038Z,66.94
2022-10-28T06:45:54.196Z,66.93
2022-10-28T06:46:49.534Z,66.94
2022-10-28T06:47:49.378Z,66.93
2022-10-28T06:48:50.429Z,66.93
2022-10-28T06:49:55.677Z,66.92
2022-10-28T06:50:49.395Z,66.90
2022-10-28T06:51:49.486Z,66.90
2022-10-28T06:52:49.383Z,66.89
2022-10-28T06:53:49.376Z,66.88
2022-10-28T06:54:49.411Z,66.86
2022-10-28T06:55:56.027Z,66.86
2022-10-28T06:56:49.484Z,66.85
2022-10-28T06:57:49.378Z,66.84
2022-10-28T06:58:50.235Z,66.80
2022-10-28T06:59:49.608Z,66.78
2022-10-28T07:00:55.661Z,66.79
2022-10-28T07:01:49.527Z,66.75
2022-10-28T07:02:49.295Z,66.74
2022-10-28T07:03:49.181Z,66.72
2022-10-28T07:04:49.223Z,66.71
2022-10-28T07:05:49.206Z,66.69
2022-10-28T07:06:51.950Z,66.69
2022-10-28T07:07:50.220Z,66.66
2022-10-28T07:08:49.123Z,66.63
2022-10-28T07:09:49.388Z,66.63
2022-10-28T07:10:51.093Z,66.60
2022-10-28T07:11:56.046Z,66.58
2022-10-28T07:12:49.078Z,66.54
2022-10-28T07:13:49.195Z,66.50
2022-10-28T07:14:50.773Z,66.46
2022-10-28T07:15:49.144Z,66.43
2022-10-28T07:16:49.086Z,66.41
2022-10-28T07:17:55.607Z,66.38
2022-10-28T07:18:48.983Z,66.37
2022-10-28T07:19:51.089Z,66.35
2022-10-28T07:20:49.014Z,66.35
2022-10-28T07:21:49.071Z,66.35
2022-10-28T07:22:55.504Z,66.32
2022-10-28T07:23:48.988Z,66.31
2022-10-28T07:24:49.033Z,66.31
2022-10-28T07:25:50.247Z,66.28
2022-10-28T07:26:50.290Z,66.27
2022-10-28T07:27:49.021Z,66.26
2022-10-28T07:28:56.379Z,66.24
2022-10-28T07:29:49.592Z,66.21
2022-10-28T07:30:48.936Z,66.20
2022-10-28T07:31:48.913Z,66.17
2022-10-28T07:32:49.106Z,66.15
2022-10-28T07:33:55.140Z,66.11
2022-10-28T07:34:48.813Z,66.09
2022-10-28T07:35:48.908Z,66.05
2022-10-28T07:36:48.885Z,66.02
2022-10-28T07:37:48.792Z,65.98
2022-10-28T07:38:48.761Z,65.92
2022-10-28T07:39:55.224Z,65.88
2022-10-28T07:40:49.027Z,65.83
2022-10-28T07:41:49.743Z,65.78
2022-10-28T07:42:48.713Z,65.76
2022-10-28T07:43:48.698Z,65.75
2022-10-28T07:44:55.032Z,65.73
2022-10-28T07:45:48.695Z,65.73
2022-10-28T07:46:48.743Z,65.70
2022-10-28T07:47:48.639Z,65.70
2022-10-28T07:48:49.062Z,65.68
2022-10-28T07:49:55.619Z,65.65
2022-10-28T07:50:49.563Z,65.64
2022-10-28T07:51:48.684Z,65.62
2022-10-28T07:52:48.634Z,65.60
2022-10-28T07:53:49.053Z,65.59
2022-10-28T07:54:56.925Z,65.57
2022-10-28T07:55:48.734Z,65.53
2022-10-28T07:56:48.813Z,65.51
2022-10-28T07:57:48.570Z,65.50
2022-10-28T07:58:49.009Z,65.46
2022-10-28T07:59:49.399Z,65.42
2022-10-28T08:00:55.010Z,65.40
2022-10-28T08:01:49.895Z,65.37
2022-10-28T08:02:49.989Z,65.36
2022-10-28T08:03:52.613Z,65.34
2022-10-28T08:04:48.621Z,65.30
2022-10-28T08:05:48.513Z,65.28
2022-10-28T08:07:48.523Z,65.22
2022-10-28T08:08:48.414Z,65.18
2022-10-28T08:09:48.667Z,65.18
2022-10-28T08:10:48.499Z,65.17
2022-10-28T08:11:48.550Z,65.14
2022-10-28T08:12:54.732Z,65.15
2022-10-28T08:13:48.467Z,65.13
2022-10-28T08:14:48.547Z,65.11
2022-10-28T08:15:48.355Z,65.08
2022-10-28T08:16:49.769Z,65.05
2022-10-28T08:17:48.264Z,65.05
2022-10-28T08:18:55.629Z,65.02
2022-10-28T08:19:48.312Z,64.99
2022-10-28T08:20:48.379Z,64.92
2022-10-28T08:21:48.510Z,64.87
2022-10-28T08:22:48.522Z,64.80
2022-10-28T08:23:54.671Z,64.69
2022-10-28T08:24:48.569Z,64.56
2022-10-28T08:25:48.349Z,64.38
2022-10-28T08:26:48.850Z,64.18
2022-10-28T08:27:48.295Z,63.96
2022-10-28T08:28:54.746Z,63.71
2022-10-28T08:29:48.162Z,63.41
2022-10-28T08:31:04.056Z,63.03
2022-10-28T08:31:49.772Z,62.63
2022-10-28T08:32:49.609Z,62.24
2022-10-28T08:33:48.161Z,61.90
2022-10-28T08:34:56.496Z,61.59
2022-10-28T08:35:48.060Z,61.30
2022-10-28T08:36:48.466Z,60.99
2022-10-28T08:37:48.059Z,60.73
2022-10-28T08:38:49.198Z,60.56
2022-10-28T08:39:55.270Z,60.44
2022-10-28T08:40:47.955Z,60.48
2022-10-28T08:41:47.980Z,60.64
2022-10-28T08:42:47.994Z,60.86
2022-10-28T08:43:57.056Z,61.17
2022-10-28T08:44:50.514Z,61.51
2022-10-28T08:45:54.392Z,61.82
2022-10-28T08:46:48.281Z,62.14
2022-10-28T08:47:47.998Z,62.41
2022-10-28T08:48:47.957Z,62.62
2022-10-28T08:49:54.447Z,62.83
2022-10-28T08:50:54.226Z,63.02
2022-10-28T08:51:48.655Z,63.17
2022-10-28T08:52:47.815Z,63.30
2022-10-28T08:53:47.906Z,63.42
2022-10-28T08:54:49.026Z,63.52
2022-10-28T08:55:47.869Z,63.61
2022-10-28T08:56:55.150Z,63.69
2022-10-28T08:57:48.429Z,63.76
2022-10-28T08:58:47.762Z,63.82
2022-10-28T08:59:47.748Z,63.88
2022-10-28T09:00:48.194Z,63.95
2022-10-28T09:01:47.979Z,63.98
2022-10-28T09:02:54.512Z,63.98
2022-10-28T09:03:47.766Z,63.94
2022-10-28T09:04:54.066Z,63.91
2022-10-28T09:05:48.317Z,63.85
2022-10-28T09:06:47.735Z,63.78
2022-10-28T09:07:47.695Z,63.72
2022-10-28T09:08:53.915Z,63.64
2022-10-28T09:09:47.633Z,63.61
2022-10-28T09:10:47.638Z,63.60
2022-10-28T09:11:47.647Z,63.61
2022-10-28T09:12:47.707Z,63.65
2022-10-28T09:13:48.331Z,63.71
2022-10-28T09:14:54.092Z,63.79
2022-10-28T09:15:48.941Z,63.85
2022-10-28T09:16:47.681Z,63.91
2022-10-28T09:17:47.943Z,63.97
2022-10-28T09:18:48.716Z,63.97
2022-10-28T09:19:47.509Z,63.98
2022-10-28T09:20:55.004Z,63.98
2022-10-28T09:21:47.491Z,63.97
2022-10-28T09:22:47.724Z,63.89
2022-10-28T09:23:47.378Z,63.83
2022-10-28T09:24:47.682Z,63.78
2022-10-28T09:25:53.660Z,63.75
2022-10-28T09:26:47.479Z,63.73
2022-10-28T09:27:47.374Z,63.70
2022-10-28T09:28:47.341Z,63.67
2022-10-28T09:29:47.461Z,63.63
2022-10-28T09:30:53.638Z,63.60
2022-10-28T09:31:47.941Z,63.58
2022-10-28T09:32:47.322Z,63.56
2022-10-28T09:33:47.327Z,63.54
2022-10-28T09:34:47.245Z,63.52
2022-10-28T09:35:53.547Z,63.52
2022-10-28T09:36:47.383Z,63.53
2022-10-28T09:37:47.880Z,63.53
2022-10-28T09:38:47.295Z,63.51
2022-10-28T09:39:49.326Z,63.49
2022-10-28T09:40:48.138Z,63.47
2022-10-28T09:41:53.538Z,63.44
2022-10-28T09:42:48.607Z,63.39
2022-10-28T09:43:47.205Z,63.37
2022-10-28T09:44:47.105Z,63.34
2022-10-28T09:45:47.069Z,63.33
2022-10-28T09:46:47.176Z,63.31
2022-10-28T09:47:53.622Z,63.31
2022-10-28T09:48:47.054Z,63.31
2022-10-28T09:49:47.029Z,63.27
2022-10-28T09:50:47.832Z,63.27
2022-10-28T09:51:47.087Z,63.27
2022-10-28T09:52:47.006Z,63.24
2022-10-28T09:53:53.269Z,63.18
2022-10-28T09:54:46.961Z,63.14
2022-10-28T09:55:46.989Z,63.07
2022-10-28T09:56:46.999Z,62.98
2022-10-28T09:57:46.968Z,62.84
2022-10-28T09:58:47.709Z,62.65
2022-10-28T09:59:53.203Z,62.44
2022-10-28T10:00:48.198Z,62.23
2022-10-28T10:01:47.034Z,61.99
2022-10-28T10:02:47.059Z,61.76
2022-10-28T10:03:46.855Z,61.57
2022-10-28T10:04:46.962Z,61.40
2022-10-28T10:05:53.804Z,61.29
2022-10-28T10:06:47.094Z,61.23
2022-10-28T10:07:46.835Z,61.24
2022-10-28T10:08:46.826Z,61.25
2022-10-28T10:09:46.902Z,61.24
2022-10-28T10:10:46.994Z,61.21
2022-10-28T10:11:54.082Z,61.18
2022-10-28T10:12:48.686Z,61.13
2022-10-28T10:13:46.894Z,61.13
2022-10-28T10:14:46.716Z,61.19
2022-10-28T10:15:46.666Z,61.24
2022-10-28T10:16:46.678Z,61.32
2022-10-28T10:17:53.067Z,61.44
2022-10-28T10:18:46.625Z,61.50
2022-10-28T10:19:50.347Z,61.62
2022-10-28T10:20:46.601Z,61.72
2022-10-28T10:21:46.609Z,61.81
2022-10-28T10:22:53.186Z,61.91
2022-10-28T10:23:46.611Z,62.01
2022-10-28T10:24:46.571Z,62.08
2022-10-28T10:25:52.917Z,62.13
2022-10-28T10:26:46.633Z,62.18
2022-10-28T10:27:46.541Z,62.22
2022-10-28T10:28:52.845Z,62.25
2022-10-28T10:29:46.524Z,62.27
2022-10-28T10:30:46.535Z,62.30
2022-10-28T10:31:46.504Z,62.31
2022-10-28T10:32:47.429Z,62.33
2022-10-28T10:33:46.484Z,62.34
2022-10-28T10:34:52.843Z,62.34
2022-10-28T10:35:46.761Z,62.36
2022-10-28T10:36:46.542Z,62.36
2022-10-28T10:37:46.392Z,62.38
2022-10-28T10:38:46.451Z,62.40
2022-10-28T10:39:52.728Z,62.42
2022-10-28T10:40:46.412Z,62.45
2022-10-28T10:41:46.810Z,62.45
2022-10-28T10:42:57.515Z,62.50
2022-10-28T10:43:47.452Z,62.55
2022-10-28T10:44:46.417Z,62.54
2022-10-28T10:45:52.688Z,62.53
2022-10-28T10:46:46.335Z,62.52
2022-10-28T10:47:46.317Z,62.53
2022-10-28T10:48:46.313Z,62.53
2022-10-28T10:49:46.269Z,62.52
2022-10-28T10:50:46.283Z,62.55
2022-10-28T10:51:52.606Z,62.53
2022-10-28T10:52:46.314Z,62.53
2022-10-28T10:53:46.231Z,62.53
2022-10-28T10:54:46.296Z,62.53
2022-10-28T10:55:46.245Z,62.52
2022-10-28T10:56:46.545Z,62.51
2022-10-28T10:57:52.798Z,62.50
2022-10-28T10:58:47.512Z,62.52
2022-10-28T10:59:46.168Z,62.50
2022-10-28T11:00:46.467Z,62.48
2022-10-28T11:01:46.349Z,62.50
2022-10-28T11:02:46.182Z,62.49
2022-10-28T11:03:52.433Z,62.47
2022-10-28T11:04:46.081Z,62.49
2022-10-28T11:05:47.987Z,62.48
2022-10-28T11:06:47.681Z,62.47
2022-10-28T11:07:46.150Z,62.46
2022-10-28T11:08:46.177Z,62.47
2022-10-28T11:09:52.443Z,62.46
2022-10-28T11:10:47.541Z,62.46
2022-10-28T11:11:46.323Z,62.44
2022-10-28T11:12:46.055Z,62.43
2022-10-28T11:13:47.026Z,62.43
2022-10-28T11:14:47.231Z,62.42
2022-10-28T11:15:52.811Z,62.40
2022-10-28T11:16:46.343Z,62.42
2022-10-28T11:17:47.237Z,62.37
2022-10-28T11:18:45.978Z,62.37
2022-10-28T11:19:46.134Z,62.36
2022-10-28T11:20:45.963Z,62.37
2022-10-28T11:21:52.293Z,62.38
2022-10-28T11:22:46.051Z,62.36
2022-10-28T11:23:46.981Z,62.37
2022-10-28T11:24:45.867Z,62.37
2022-10-28T11:25:45.895Z,62.36
2022-10-28T11:26:57.145Z,62.36
2022-10-28T11:27:48.629Z,62.35
2022-10-28T11:28:48.909Z,62.33
2022-10-28T11:29:45.881Z,62.32
2022-10-28T11:30:45.843Z,62.31
2022-10-28T11:31:52.157Z,62.30
2022-10-28T11:32:56.176Z,62.28
2022-10-28T11:33:46.770Z,62.28
2022-10-28T11:34:45.685Z,62.25
2022-10-28T11:35:45.709Z,62.26
2022-10-28T11:36:52.076Z,62.25
2022-10-28T11:37:45.687Z,62.22
2022-10-28T11:38:45.974Z,62.21
2022-10-28T11:39:45.671Z,62.20
2022-10-28T11:40:45.690Z,62.21
2022-10-28T11:41:45.783Z,62.18
2022-10-28T11:42:52.640Z,62.18
2022-10-28T11:43:46.907Z,62.14
2022-10-28T11:44:45.705Z,62.13
2022-10-28T11:45:48.656Z,62.12
2022-10-28T11:46:47.165Z,62.13
2022-10-28T11:47:52.321Z,62.11
2022-10-28T11:48:45.578Z,62.10
2022-10-28T11:49:45.542Z,62.09
2022-10-28T11:50:45.535Z,62.06
2022-10-28T11:51:45.847Z,62.04
2022-10-28T11:52:45.915Z,62.04
2022-10-28T11:53:51.947Z,62.01
2022-10-28T11:54:45.577Z,61.98
2022-10-28T11:55:45.490Z,61.95
2022-10-28T11:56:45.808Z,61.92
2022-10-28T11:57:45.701Z,61.88
2022-10-28T11:58:51.753Z,61.82
2022-10-28T11:59:45.456Z,61.81
2022-10-28T12:00:45.433Z,61.76
2022-10-28T12:01:46.426Z,61.72
2022-10-28T12:02:48.139Z,61.72
2022-10-28T12:03:54.342Z,61.68
2022-10-28T12:04:45.368Z,61.56
2022-10-28T12:05:45.354Z,61.36
2022-10-28T12:06:46.361Z,61.20
2022-10-28T12:07:45.268Z,61.04
2022-10-28T12:08:45.338Z,60.97
2022-10-28T12:09:51.604Z,60.89
2022-10-28T12:10:45.257Z,60.80
2022-10-28T12:11:45.400Z,60.70
2022-10-28T12:12:48.682Z,60.60
2022-10-28T12:13:46.805Z,60.50
2022-10-28T12:14:51.549Z,60.38
2022-10-28T12:15:45.197Z,60.24
2022-10-28T12:16:45.217Z,60.05
2022-10-28T12:17:45.228Z,59.92
2022-10-28T12:18:45.153Z,59.83
2022-10-28T12:19:45.174Z,59.82
2022-10-28T12:20:51.502Z,59.78
2022-10-28T12:21:45.111Z,59.70
2022-10-28T12:22:45.102Z,59.62
2022-10-28T12:23:45.074Z,59.53
2022-10-28T12:24:45.934Z,59.50
2022-10-28T12:25:45.085Z,59.54
2022-10-28T12:26:51.744Z,59.59
2022-10-28T12:27:45.073Z,59.70
2022-10-28T12:28:45.085Z,59.79
2022-10-28T12:29:45.024Z,59.84
2022-10-28T12:30:45.073Z,59.93
2022-10-28T12:31:45.044Z,60.10
2022-10-28T12:32:51.401Z,60.28
2022-10-28T12:33:45.158Z,60.42
2022-10-28T12:34:44.984Z,60.47
2022-10-28T12:35:45.317Z,60.53
2022-10-28T12:36:45.042Z,60.51
2022-10-28T12:37:47.797Z,60.53
2022-10-28T12:38:51.312Z,60.60
2022-10-28T12:39:44.909Z,60.63
2022-10-28T12:40:45.176Z,60.65
2022-10-28T12:41:45.845Z,60.69
2022-10-28T12:42:44.881Z,60.70
2022-10-28T12:43:52.005Z,60.73
2022-10-28T12:44:45.969Z,60.75
2022-10-28T12:45:45.038Z,60.75
2022-10-28T12:46:45.138Z,60.77
2022-10-28T12:47:44.789Z,60.78
2022-10-28T12:48:44.884Z,60.81
2022-10-28T12:49:51.203Z,60.82
2022-10-28T12:50:51.200Z,60.82
2022-10-28T12:51:45.246Z,60.83
2022-10-28T12:52:44.808Z,60.82
2022-10-28T12:53:44.911Z,60.78
2022-10-28T12:54:53.778Z,60.76
2022-10-28T12:55:44.788Z,60.74
2022-10-28T12:56:44.792Z,60.70